createdAt,value
2019-01-30T00:02:12.718Z,4.80
2019-01-30T00:06:11.208Z,4.83
2019-01-30T00:10:11.433Z,5.13
2019-01-30T00:14:09.813Z,4.73
2019-01-30T00:18:08.190Z,4.60
2019-01-30T00:22:06.570Z,5.10
2019-01-30T00:26:04.937Z,5.17
2019-01-30T00:30:04.970Z,5.23
2019-01-30T00:34:03.319Z,5.03
2019-01-30T00:38:01.734Z,4.80
2019-01-30T00:42:00.117Z,5.20
2019-01-30T00:46:02.599Z,4.97
2019-01-30T00:50:00.974Z,5.47
2019-01-30T00:53:59.357Z,5.20
2019-01-30T00:57:57.766Z,4.60
2019-01-30T01:01:56.138Z,5.23
2019-01-30T01:05:54.523Z,5.03
2019-01-30T01:09:52.911Z,4.10
2019-01-30T01:13:51.203Z,4.80
2019-01-30T01:17:49.594Z,3.80
2019-01-30T01:21:47.973Z,4.53
2019-01-30T01:25:46.984Z,4.33
2019-01-30T01:29:45.348Z,4.87
2019-01-30T01:33:43.738Z,4.43
2019-01-30T01:37:42.556Z,4.93
2019-01-30T01:41:40.858Z,4.60
2019-01-30T01:45:39.225Z,4.30
2019-01-30T01:49:37.608Z,3.30
2019-01-30T01:53:35.986Z,3.80
2019-01-30T01:57:34.738Z,4.53
2019-01-30T02:01:37.882Z,4.00
2019-01-30T02:05:36.258Z,3.97
2019-01-30T02:09:34.634Z,4.30
2019-01-30T02:13:33.018Z,3.93
2019-01-30T02:17:31.393Z,4.47
2019-01-30T02:21:29.710Z,4.10
2019-01-30T02:25:28.093Z,4.00
2019-01-30T02:29:26.517Z,4.93
2019-01-30T02:33:27.613Z,4.03
2019-01-30T02:37:25.990Z,4.17
2019-01-30T02:41:24.365Z,4.43
2019-01-30T02:45:26.644Z,4.83
2019-01-30T02:49:25.046Z,4.77
2019-01-30T02:53:23.456Z,4.23
2019-01-30T02:57:22.149Z,4.37
2019-01-30T03:01:20.544Z,4.67
2019-01-30T03:05:18.918Z,4.43
2019-01-30T03:09:17.293Z,4.97
2019-01-30T03:13:15.673Z,4.00
2019-01-30T03:17:16.291Z,4.60
2019-01-30T03:21:14.673Z,4.87
2019-01-30T03:25:15.074Z,4.40
2019-01-30T03:29:13.499Z,4.57
2019-01-30T03:33:11.842Z,4.97
2019-01-30T03:37:10.238Z,4.80
2019-01-30T03:41:08.632Z,4.93
2019-01-30T03:45:09.609Z,4.83
2019-01-30T03:49:07.979Z,4.87
2019-01-30T03:53:06.346Z,4.47
2019-01-30T03:57:04.728Z,4.60
2019-01-30T04:01:05.780Z,4.70
2019-01-30T04:05:13.567Z,5.20
2019-01-30T04:09:11.967Z,5.17
2019-01-30T04:13:10.935Z,4.83
2019-01-30T04:17:09.345Z,4.33
2019-01-30T04:21:07.692Z,4.73
2019-01-30T04:25:07.563Z,5.23
2019-01-30T04:29:05.897Z,4.37
2019-01-30T04:33:06.229Z,5.20
2019-01-30T04:37:04.321Z,5.57
2019-01-30T04:41:05.882Z,5.73
2019-01-30T04:45:07.557Z,4.77
2019-01-30T04:49:17.908Z,6.30
2019-01-30T04:53:16.313Z,4.67
2019-01-30T04:57:14.679Z,6.13
2019-01-30T05:01:13.016Z,6.37
2019-01-30T05:05:12.330Z,6.13
2019-01-30T05:09:10.754Z,5.90
2019-01-30T05:13:12.053Z,5.73
2019-01-30T05:17:10.421Z,5.63
2019-01-30T05:21:08.736Z,5.27
2019-01-30T05:25:08.843Z,5.50
2019-01-30T05:29:07.158Z,6.50
2019-01-30T05:33:05.553Z,6.60
2019-01-30T05:37:03.920Z,5.97
2019-01-30T05:41:02.346Z,6.30
2019-01-30T05:45:00.735Z,6.73
2019-01-30T05:48:59.103Z,6.07
2019-01-30T05:52:57.501Z,6.47
2019-01-30T05:56:58.667Z,6.00
2019-01-30T06:00:57.040Z,6.50
2019-01-30T06:04:55.381Z,6.20
2019-01-30T06:08:53.740Z,6.67
2019-01-30T06:12:52.068Z,9.43
2019-01-30T06:16:55.145Z,6.77
2019-01-30T06:20:53.516Z,6.50
2019-01-30T06:24:53.063Z,6.67
2019-01-30T06:28:51.407Z,7.67
2019-01-30T06:32:52.583Z,7.07
2019-01-30T06:36:50.974Z,7.53
2019-01-30T06:40:49.334Z,6.73
2019-01-30T06:44:48.263Z,7.90
2019-01-30T06:48:46.661Z,6.90
2019-01-30T06:52:45.028Z,7.83
2019-01-30T06:56:43.353Z,6.83
2019-01-30T07:00:41.878Z,6.83
2019-01-30T07:04:40.205Z,7.33
2019-01-30T07:08:38.820Z,6.63
2019-01-30T07:12:37.192Z,5.90
2019-01-30T07:16:35.601Z,6.77
2019-01-30T07:20:35.879Z,6.47
2019-01-30T07:24:34.185Z,6.67
2019-01-30T07:28:32.568Z,6.70
2019-01-30T07:32:42.292Z,6.37
2019-01-30T07:36:38.058Z,6.63
2019-01-30T07:40:36.434Z,7.00
2019-01-30T07:44:34.788Z,7.00
2019-01-30T07:48:33.107Z,7.83
2019-01-30T07:52:32.826Z,6.83
2019-01-30T07:56:31.510Z,7.37
2019-01-30T08:00:30.919Z,8.03
2019-01-30T08:04:30.863Z,8.53
2019-01-30T08:08:29.221Z,8.30
2019-01-30T08:12:27.612Z,8.60
2019-01-30T08:16:25.989Z,8.70
2019-01-30T08:20:24.379Z,9.33
2019-01-30T08:24:22.796Z,8.03
2019-01-30T08:28:21.850Z,8.90
2019-01-30T08:32:22.288Z,7.70
2019-01-30T08:36:20.437Z,8.23
2019-01-30T08:40:18.789Z,9.03
2019-01-30T08:44:17.181Z,8.30
2019-01-30T08:48:15.477Z,8.93
2019-01-30T08:52:13.850Z,8.87
2019-01-30T08:56:12.205Z,8.93
2019-01-30T09:00:13.878Z,8.73
2019-01-30T09:04:12.265Z,8.80
2019-01-30T09:08:13.404Z,9.93
2019-01-30T09:12:12.782Z,8.83
2019-01-30T09:16:11.154Z,10.00
2019-01-30T09:20:17.746Z,9.67
2019-01-30T09:24:16.313Z,9.83
2019-01-30T09:28:14.700Z,8.90
2019-01-30T09:32:14.550Z,10.73
2019-01-30T09:36:12.934Z,9.20
2019-01-30T09:40:14.338Z,9.97
2019-01-30T09:44:12.649Z,9.90
2019-01-30T09:48:18.189Z,8.97
2019-01-30T09:52:26.471Z,9.13
2019-01-30T09:56:16.578Z,10.03
2019-01-30T10:00:32.045Z,9.63
2019-01-30T10:04:30.362Z,9.87
2019-01-30T10:08:28.795Z,10.03
2019-01-30T10:12:27.459Z,9.43
2019-01-30T10:16:25.857Z,10.13
2019-01-30T10:20:26.475Z,9.77
2019-01-30T10:24:24.909Z,9.90
2019-01-30T10:28:23.298Z,10.60
2019-01-30T10:32:21.658Z,9.70
2019-01-30T10:36:20.050Z,10.60
2019-01-30T10:40:22.542Z,10.13
2019-01-30T10:44:20.918Z,10.13
2019-01-30T10:48:19.282Z,10.40
2019-01-30T10:52:24.062Z,10.73
2019-01-30T10:56:22.440Z,10.50
2019-01-30T11:00:26.650Z,9.87
2019-01-30T11:04:25.035Z,9.87
2019-01-30T11:08:25.448Z,11.00
2019-01-30T11:12:23.798Z,10.30
2019-01-30T11:16:22.198Z,10.60
2019-01-30T11:20:22.135Z,12.57
2019-01-30T11:24:20.659Z,10.37
2019-01-30T11:28:19.040Z,9.70
2019-01-30T11:32:17.423Z,11.83
2019-01-30T11:36:15.810Z,10.80
2019-01-30T11:40:17.094Z,9.47
2019-01-30T11:44:15.489Z,10.07
2019-01-30T11:48:16.610Z,11.60
2019-01-30T11:52:15.330Z,10.97
2019-01-30T11:56:13.710Z,11.93
2019-01-30T12:00:19.570Z,10.83
2019-01-30T12:04:18.317Z,10.93
2019-01-30T12:08:17.353Z,10.77
2019-01-30T12:12:16.014Z,10.70
2019-01-30T12:16:14.434Z,10.40
2019-01-30T12:20:13.486Z,11.63
2019-01-30T12:24:12.700Z,10.37
2019-01-30T12:28:11.087Z,11.03
2019-01-30T12:32:09.475Z,11.00
2019-01-30T12:36:07.837Z,10.93
2019-01-30T12:40:09.555Z,11.07
2019-01-30T12:44:08.382Z,11.27
2019-01-30T12:48:10.876Z,11.60
2019-01-30T12:52:09.354Z,11.27
2019-01-30T12:56:07.848Z,11.17
2019-01-30T13:00:18.397Z,13.83
2019-01-30T13:04:17.034Z,12.20
2019-01-30T13:08:15.413Z,11.40
2019-01-30T13:12:13.791Z,10.90
2019-01-30T13:16:12.259Z,12.73
2019-01-30T13:20:16.157Z,13.27
2019-01-30T13:24:14.521Z,12.23
2019-01-30T13:28:12.901Z,12.20
2019-01-30T13:32:12.391Z,12.03
2019-01-30T13:36:10.680Z,12.10
2019-01-30T13:40:12.304Z,12.00
2019-01-30T13:44:27.484Z,12.47
2019-01-30T13:48:25.880Z,12.27
2019-01-30T13:52:24.653Z,11.97
2019-01-30T13:56:23.028Z,12.03
2019-01-30T14:00:32.915Z,12.40
2019-01-30T14:04:31.279Z,11.83
2019-01-30T14:08:29.984Z,12.33
2019-01-30T14:12:28.336Z,13.17
2019-01-30T14:16:26.676Z,12.83
2019-01-30T14:20:25.033Z,13.53
2019-01-30T14:24:23.442Z,13.47
2019-01-30T14:28:21.841Z,14.30
2019-01-30T14:32:20.283Z,13.30
2019-01-30T14:36:18.817Z,12.73
2019-01-30T14:40:20.187Z,15.60
2019-01-30T14:44:18.578Z,14.13
2019-01-30T14:48:16.944Z,11.63
2019-01-30T14:52:15.311Z,12.90
2019-01-30T14:56:13.649Z,11.07
2019-01-30T15:00:30.366Z,12.23
2019-01-30T15:04:28.713Z,11.87
2019-01-30T15:08:27.308Z,13.40
2019-01-30T15:12:25.721Z,12.50
2019-01-30T15:16:24.040Z,14.90
2019-01-30T15:20:25.152Z,14.50
2019-01-30T15:24:23.531Z,14.80
2019-01-30T15:28:21.893Z,14.13
2019-01-30T15:32:20.648Z,15.57
2019-01-30T15:36:19.060Z,14.67
2019-01-30T15:40:21.368Z,13.47
2019-01-30T15:44:19.798Z,14.47
2019-01-30T15:48:18.179Z,16.30
2019-01-30T15:52:16.770Z,25.70
2019-01-30T15:56:16.566Z,15.83
2019-01-30T16:00:18.571Z,16.17
2019-01-30T16:04:17.640Z,13.60
2019-01-30T16:08:16.184Z,15.23
2019-01-30T16:12:14.552Z,16.57
2019-01-30T16:16:20.631Z,16.73
2019-01-30T16:20:18.983Z,15.60
2019-01-30T16:24:17.349Z,15.20
2019-01-30T16:28:15.773Z,16.80
2019-01-30T16:32:14.125Z,16.20
2019-01-30T16:36:12.518Z,15.57
2019-01-30T16:40:14.166Z,14.73
2019-01-30T16:44:12.557Z,13.50
2019-01-30T16:48:10.936Z,15.73
2019-01-30T16:52:09.322Z,16.47
2019-01-30T16:56:07.686Z,16.60
2019-01-30T17:00:17.774Z,16.10
2019-01-30T17:04:16.167Z,15.70
2019-01-30T17:08:14.561Z,12.23
2019-01-30T17:12:15.963Z,11.23
2019-01-30T17:16:14.367Z,16.23
2019-01-30T17:20:20.026Z,17.13
2019-01-30T17:24:18.401Z,12.60
2019-01-30T17:28:16.761Z,15.30
2019-01-30T17:36:19.354Z,21.13
2019-01-30T17:40:21.012Z,21.50
2019-01-30T17:44:21.389Z,22.53
2019-01-30T17:48:19.763Z,20.60
2019-01-30T17:52:18.207Z,20.97
2019-01-30T17:56:16.596Z,22.80
2019-01-30T18:00:34.524Z,24.57
2019-01-30T18:04:32.950Z,24.40
2019-01-30T18:08:31.315Z,24.17
2019-01-30T18:12:30.057Z,25.17
2019-01-30T18:16:28.700Z,22.10
2019-01-30T18:20:29.391Z,21.80
2019-01-30T18:24:28.499Z,20.23
2019-01-30T18:28:28.492Z,21.50
2019-01-30T18:32:26.776Z,21.40
2019-01-30T18:36:25.194Z,19.57
2019-01-30T18:40:31.249Z,21.70
2019-01-30T18:44:29.673Z,19.73
2019-01-30T18:48:28.312Z,21.47
2019-01-30T18:52:26.690Z,20.00
2019-01-30T18:56:25.127Z,22.47
2019-01-30T19:00:34.543Z,21.23
2019-01-30T19:04:32.841Z,17.93
2019-01-30T19:08:31.558Z,21.43
2019-01-30T19:12:30.128Z,22.93
2019-01-30T19:16:28.524Z,22.33
2019-01-30T19:20:29.876Z,20.30
2019-01-30T19:24:29.132Z,22.00
2019-01-30T19:28:27.532Z,19.83
2019-01-30T19:32:25.908Z,21.80
2019-01-30T19:36:24.280Z,21.23
2019-01-30T19:40:24.455Z,22.07
2019-01-30T19:44:22.874Z,22.43
2019-01-30T19:48:21.307Z,21.67
2019-01-30T19:52:19.743Z,23.43
2019-01-30T19:56:18.124Z,20.63
2019-01-30T20:00:22.380Z,24.20
2019-01-30T20:04:20.742Z,24.67
2019-01-30T20:08:19.487Z,23.30
2019-01-30T20:12:17.924Z,24.83
2019-01-30T20:16:16.285Z,25.63
2019-01-30T20:24:36.277Z,25.70
2019-01-30T20:28:34.700Z,24.90
2019-01-30T20:32:34.553Z,24.37
2019-01-30T20:36:32.892Z,25.07
2019-01-30T20:40:31.352Z,24.00
2019-01-30T20:44:29.931Z,23.17
2019-01-30T20:48:28.327Z,22.17
2019-01-30T20:52:28.342Z,21.70
2019-01-30T20:56:27.761Z,21.77
2019-01-30T21:00:34.900Z,21.63
2019-01-30T21:04:34.824Z,22.63
2019-01-30T21:08:53.334Z,19.57
2019-01-30T21:12:51.671Z,20.27
2019-01-30T21:16:50.033Z,20.07
2019-01-30T21:20:48.425Z,18.10
2019-01-30T21:24:47.482Z,16.47
2019-01-30T21:28:45.857Z,16.47
2019-01-30T21:32:44.246Z,16.57
2019-01-30T21:36:42.641Z,15.73
2019-01-30T21:40:41.034Z,14.67
2019-01-30T21:44:39.439Z,12.73
2019-01-30T21:48:37.834Z,10.47
2019-01-30T21:52:36.219Z,11.10
2019-01-30T21:56:34.608Z,12.47
2019-01-30T22:00:33.108Z,11.63
2019-01-30T22:04:31.496Z,10.73
2019-01-30T22:08:38.693Z,10.37
2019-01-30T22:12:37.935Z,12.13
2019-01-30T22:16:36.344Z,11.23
2019-01-30T22:20:34.757Z,10.77
2019-01-30T22:24:33.214Z,12.40
2019-01-30T22:28:31.631Z,12.33
2019-01-30T22:32:34.601Z,15.03
2019-01-30T22:36:30.122Z,13.00
2019-01-30T22:40:28.512Z,15.83
2019-01-30T22:44:26.913Z,16.83
2019-01-30T22:48:25.297Z,18.23
2019-01-30T22:52:23.709Z,16.43
2019-01-30T22:56:26.700Z,16.73
2019-01-30T23:00:57.862Z,13.00
2019-01-30T23:05:11.106Z,18.47
2019-01-30T23:09:38.605Z,17.13
2019-01-30T23:13:40.266Z,17.00
2019-01-30T23:17:53.746Z,17.03
2019-01-30T23:21:55.412Z,14.27
2019-01-30T23:26:05.944Z,13.43
2019-01-30T23:30:25.646Z,14.40
2019-01-30T23:34:59.538Z,16.23
2019-01-30T23:39:12.761Z,15.17
2019-01-30T23:43:23.442Z,15.17
2019-01-30T23:47:34.087Z,15.80
2019-01-30T23:51:52.497Z,15.80
2019-01-30T23:56:08.843Z,14.20
